Time;durP1;ratioP1;P1;durP2;ratioP2;P2;SDS_P1;SDS_P2;PMS_P1;PMS_P2;Temp;Humidity;BMP_temperature;BMP_pressure;BME280_temperature;BME280_humidity;BME280_pressure;Samples;Min_cycle;Max_cycle;Signal;HPM_P1;HPM_P2
2021/11/04 00:02:31;;;;;;;20.62;10.23;;;;;;;8.56;100.00;98168.52;4294295;81;28547;-82
2021/11/04 00:08:32;;;;;;;18.27;9.98;;;;;;;8.51;100.00;98163.08;4318104;81;28492;-84
2021/11/04 00:14:34;;;;;;;16.07;9.15;;;;;;;8.50;100.00;98158.73;4316667;81;28464;-83
2021/11/04 00:20:37;;;;;;;14.18;7.72;;;;;;;8.55;100.00;98140.09;4317116;81;28534;-82
2021/11/04 00:26:38;;;;;;;18.75;9.58;;;;;;;8.53;100.00;98121.28;4317156;81;28475;-81
2021/11/04 00:32:49;;;;;;;15.83;9.13;;;;;;;8.35;100.00;98123.89;4283085;81;28511;-81
2021/11/04 00:38:51;;;;;;;17.48;9.20;;;;;;;8.35;100.00;98109.16;4319847;82;28446;-82
2021/11/04 00:44:52;;;;;;;14.30;7.40;;;;;;;8.10;100.00;98094.77;4270457;82;28490;-83
2021/11/04 00:50:53;;;;;;;15.25;7.85;;;;;;;8.29;100.00;98099.94;4307764;81;28505;-83
2021/11/04 00:56:55;;;;;;;12.60;7.87;;;;;;;8.26;100.00;98094.53;4301997;82;28479;-83
2021/11/04 01:02:56;;;;;;;13.13;7.22;;;;;;;8.24;100.00;98071.20;4292978;82;28485;-82
2021/11/04 01:08:57;;;;;;;11.80;7.60;;;;;;;8.08;100.00;98062.07;4305641;82;28445;-83
2021/11/04 01:14:58;;;;;;;12.20;7.30;;;;;;;8.15;100.00;98061.41;4317638;82;28478;-82
2021/11/04 01:21:00;;;;;;;11.00;6.45;;;;;;;8.10;100.00;98049.25;4299543;82;28482;-82
2021/11/04 01:27:01;;;;;;;10.38;6.75;;;;;;;8.09;100.00;98047.63;4324929;82;28522;-83
2021/11/04 01:33:03;;;;;;;12.60;7.12;;;;;;;8.09;100.00;98043.10;4274938;82;28500;-83
2021/11/04 01:39:05;;;;;;;9.60;5.97;;;;;;;8.03;100.00;98025.30;4276762;82;28504;-82
2021/11/04 01:45:07;;;;;;;8.48;5.87;;;;;;;8.05;100.00;98023.20;4298547;82;28566;-83
2021/11/04 01:51:09;;;;;;;11.75;6.00;;;;;;;8.02;100.00;98020.18;4297632;82;28462;-84
2021/11/04 01:57:11;;;;;;;9.68;6.20;;;;;;;8.04;100.00;98040.31;4324754;82;28561;-83
2021/11/04 02:03:30;;;;;;;11.65;6.78;;;;;;;8.02;100.00;98024.20;4324836;81;28483;-83
2021/11/04 02:09:46;;;;;;;12.23;6.85;;;;;;;8.18;100.00;98011.39;4271078;82;28544;-84
2021/11/04 02:15:51;;;;;;;8.98;5.95;;;;;;;7.97;100.00;97998.69;4247614;84;28477;-84
2021/11/04 02:21:59;;;;;;;8.07;5.23;;;;;;;8.06;100.00;97991.90;4309643;82;28458;-84
2021/11/04 02:28:08;;;;;;;9.68;5.47;;;;;;;8.04;100.00;97981.42;4324424;81;28482;-83
2021/11/04 02:34:09;;;;;;;10.48;6.17;;;;;;;8.07;100.00;97979.63;4258735;83;28558;-84
2021/11/04 02:40:12;;;;;;;9.88;6.10;;;;;;;8.09;100.00;97977.52;4310834;82;28549;-84
2021/11/04 02:46:14;;;;;;;10.68;6.22;;;;;;;8.09;100.00;97953.41;4294444;83;28497;-83
2021/11/04 02:52:16;;;;;;;7.97;4.75;;;;;;;8.25;100.00;97940.81;4292863;82;28496;-83
2021/11/04 02:58:19;;;;;;;11.93;5.00;;;;;;;8.28;100.00;97941.14;4300063;82;28545;-83
2021/11/04 03:04:21;;;;;;;8.93;5.58;;;;;;;8.31;100.00;97933.13;4284164;82;28458;-84
2021/11/04 03:10:24;;;;;;;9.80;6.35;;;;;;;8.36;100.00;97946.07;4278025;82;28536;-83
2021/11/04 03:16:26;;;;;;;11.15;5.95;;;;;;;8.22;100.00;97924.70;4310147;82;28541;-83
2021/11/04 03:22:28;;;;;;;13.40;5.90;;;;;;;8.32;100.00;97918.68;4292938;82;28881;-84
2021/11/04 03:28:31;;;;;;;10.25;6.05;;;;;;;8.35;100.00;97927.59;4301154;81;28653;-83
2021/11/04 03:34:34;;;;;;;11.18;5.80;;;;;;;8.30;100.00;97906.89;4301285;82;28457;-83
2021/11/04 03:40:36;;;;;;;9.68;5.08;;;;;;;8.28;100.00;97909.52;4283076;82;28506;-84
2021/11/04 03:46:39;;;;;;;8.40;4.80;;;;;;;8.21;100.00;97904.33;4302421;81;28588;-84
2021/11/04 03:52:42;;;;;;;8.88;4.80;;;;;;;8.27;100.00;97902.00;4302801;82;28459;-83
2021/11/04 03:58:44;;;;;;;10.00;5.35;;;;;;;8.26;100.00;97900.92;4315570;82;28501;-83
2021/11/04 04:04:54;;;;;;;12.13;5.70;;;;;;;8.25;100.00;97883.24;4266013;82;28437;-82
2021/11/04 04:10:57;;;;;;;9.85;5.40;;;;;;;8.30;100.00;97872.59;4300505;82;28488;-83
2021/11/04 04:16:58;;;;;;;7.45;4.03;;;;;;;8.40;100.00;97873.29;4278096;82;28463;-82
2021/11/04 04:22:59;;;;;;;8.13;4.33;;;;;;;8.59;100.00;97861.27;4184371;84;28476;-82
2021/11/04 04:29:03;;;;;;;8.38;5.05;;;;;;;8.33;100.00;97858.19;4297619;82;28470;-81
2021/11/04 04:35:04;;;;;;;9.63;5.30;;;;;;;8.45;100.00;97856.77;4262434;83;28448;-82
2021/11/04 04:41:08;;;;;;;10.13;5.60;;;;;;;8.48;100.00;97848.22;4157795;85;28502;-83
2021/11/04 04:47:09;;;;;;;8.50;5.37;;;;;;;8.56;100.00;97830.94;4166048;85;28482;-83
2021/11/04 04:53:10;;;;;;;8.80;4.78;;;;;;;8.57;100.00;97833.89;4261621;83;28565;-83
2021/11/04 04:59:12;;;;;;;7.62;4.55;;;;;;;8.48;100.00;97827.31;4265852;83;28477;-83
2021/11/04 05:05:14;;;;;;;8.95;4.90;;;;;;;8.47;100.00;97843.11;4275833;83;28560;-82
2021/11/04 05:11:16;;;;;;;9.63;5.42;;;;;;;8.45;100.00;97816.58;4273639;83;28486;-83
2021/11/04 05:17:17;;;;;;;7.95;4.17;;;;;;;8.35;100.00;97813.77;4252712;83;28474;-84
2021/11/04 05:23:18;;;;;;;6.47;3.87;;;;;;;8.44;100.00;97811.47;4245578;83;28477;-83
2021/11/04 05:29:20;;;;;;;7.67;4.42;;;;;;;8.53;100.00;97812.69;4177560;84;28522;-82
2021/11/04 05:35:21;;;;;;;9.45;4.67;;;;;;;8.48;100.00;97795.99;4302003;82;28506;-85
2021/11/04 05:41:23;;;;;;;7.80;4.20;;;;;;;8.49;100.00;97786.10;4298849;82;28483;-83
2021/11/04 05:47:24;;;;;;;9.93;4.75;;;;;;;8.55;100.00;97751.63;4317621;81;28516;-83
2021/11/04 05:53:25;;;;;;;8.43;4.40;;;;;;;8.48;100.00;97736.23;4307374;82;28516;-86
2021/11/04 05:59:27;;;;;;;10.13;4.47;;;;;;;8.65;100.00;97731.66;4308804;81;28439;-88
2021/11/04 06:05:28;;;;;;;8.13;4.10;;;;;;;8.61;100.00;97713.66;4305438;81;28499;-85
2021/11/04 06:11:30;;;;;;;7.37;4.17;;;;;;;8.64;100.00;97700.57;4321573;81;28462;-84
2021/11/04 06:17:31;;;;;;;6.90;3.72;;;;;;;8.73;100.00;97701.47;4313898;81;28502;-88
2021/11/04 06:23:33;;;;;;;7.75;4.20;;;;;;;8.79;100.00;97695.91;4303585;81;28484;-86
2021/11/04 06:29:34;;;;;;;7.67;3.80;;;;;;;8.91;100.00;97682.88;4324841;82;28514;-83
2021/11/04 06:35:35;;;;;;;9.83;3.80;;;;;;;9.14;100.00;97687.12;4251463;82;28477;-87
2021/11/04 06:41:37;;;;;;;6.97;3.92;;;;;;;9.22;100.00;97691.75;4296079;81;28512;-86
2021/11/04 06:47:52;;;;;;;9.98;4.25;;;;;;;9.40;100.00;97690.55;4285633;81;28453;-86
2021/11/04 06:53:56;;;;;;;7.47;4.37;;;;;;;9.45;100.00;97690.05;4298355;81;28536;-87
2021/11/04 07:00:00;;;;;;;8.33;4.28;;;;;;;9.35;100.00;97667.96;4298493;82;28502;-89
2021/11/04 07:06:09;;;;;;;9.55;3.83;;;;;;;9.48;100.00;97656.54;4238034;84;28477;-88
2021/11/04 07:12:13;;;;;;;14.98;4.83;;;;;;;9.56;100.00;97673.47;4259108;82;28479;-90
2021/11/04 07:18:17;;;;;;;8.60;3.67;;;;;;;9.83;100.00;97679.81;4287828;81;28474;-88
2021/11/04 07:24:24;;;;;;;9.00;4.60;;;;;;;9.90;100.00;97678.53;4315746;81;28560;-88
2021/11/04 07:30:30;;;;;;;10.53;4.60;;;;;;;9.93;100.00;97684.45;4299791;81;28503;-82
2021/11/04 07:36:39;;;;;;;13.05;4.47;;;;;;;9.97;100.00;97693.06;4240110;83;28475;-88
2021/11/04 07:42:42;;;;;;;16.30;4.33;;;;;;;9.96;100.00;97670.49;4265799;83;28507;-87
2021/11/04 07:48:44;;;;;;;12.75;4.08;;;;;;;10.05;100.00;97674.30;4137551;84;28480;-88
2021/11/04 07:54:45;;;;;;;15.65;4.65;;;;;;;10.11;100.00;97671.92;4268806;82;28499;-88
2021/11/04 08:00:48;;;;;;;14.18;4.55;;;;;;;10.24;100.00;97663.11;4135127;84;28476;-86
2021/11/04 08:06:52;;;;;;;14.30;4.08;;;;;;;10.19;100.00;97631.11;4259685;82;28497;-85
2021/11/04 08:12:54;;;;;;;11.63;3.77;;;;;;;10.35;100.00;97614.23;4168746;84;28552;-87
2021/11/04 08:18:55;;;;;;;9.53;4.05;;;;;;;10.33;100.00;97599.20;4161064;84;28484;-87
2021/11/04 08:24:56;;;;;;;9.15;4.00;;;;;;;10.68;100.00;97616.24;4246657;82;28463;-86
2021/11/04 08:30:58;;;;;;;17.65;5.30;;;;;;;10.85;100.00;97623.50;4277445;82;28482;-87
2021/11/04 08:36:59;;;;;;;15.75;5.35;;;;;;;10.95;100.00;97606.58;4273447;82;28542;-85
2021/11/04 08:43:02;;;;;;;12.93;5.35;;;;;;;11.09;100.00;97591.23;4333299;81;28532;-83
2021/11/04 08:49:05;;;;;;;13.72;4.37;;;;;;;11.20;100.00;97588.02;4321694;81;28440;-84
2021/11/04 08:55:09;;;;;;;9.70;4.22;;;;;;;11.54;100.00;97586.85;4325429;81;28454;-84
2021/11/04 09:01:12;;;;;;;11.03;4.83;;;;;;;11.69;100.00;97547.52;4326441;81;28506;-82
2021/11/04 09:07:20;;;;;;;8.65;3.98;;;;;;;11.94;100.00;97545.27;4315031;81;28530;-87
2021/11/04 09:13:23;;;;;;;14.13;4.42;;;;;;;12.03;100.00;97531.23;4325621;81;28565;-85
2021/11/04 09:19:24;;;;;;;8.83;4.00;;;;;;;12.13;100.00;97567.54;4339176;81;28501;-86
2021/11/04 09:25:26;;;;;;;10.10;4.25;;;;;;;12.25;100.00;97573.95;4329934;81;28427;-84
2021/11/04 09:31:29;;;;;;;10.82;4.00;;;;;;;12.29;100.00;97549.42;4329013;81;28505;-84
2021/11/04 09:37:30;;;;;;;9.78;3.52;;;;;;;12.52;100.00;97546.56;4323890;81;28484;-84
2021/11/04 09:43:33;;;;;;;11.97;3.90;;;;;;;12.77;100.00;97526.42;4276892;82;28462;-82
2021/11/04 09:49:34;;;;;;;7.65;3.10;;;;;;;12.88;100.00;97542.78;4314561;82;28523;-83
2021/11/04 09:55:37;;;;;;;10.65;3.90;;;;;;;13.09;100.00;97524.52;4295447;81;28462;-87
2021/11/04 10:01:50;;;;;;;7.65;3.45;;;;;;;13.04;100.00;97526.47;4321469;81;28489;-84
2021/11/04 10:07:51;;;;;;;8.98;3.40;;;;;;;12.97;100.00;97507.92;4191212;83;28607;-84
2021/11/04 10:14:04;;;;;;;10.45;3.60;;;;;;;12.94;100.00;97534.91;4315822;82;28454;-83
2021/11/04 10:20:18;;;;;;;9.30;3.40;;;;;;;13.11;100.00;97556.59;4264515;82;28538;-84
2021/11/04 10:26:24;;;;;;;9.53;3.52;;;;;;;13.15;100.00;97563.05;4308389;82;28466;-84
2021/11/04 10:32:35;;;;;;;7.42;3.40;;;;;;;13.27;100.00;97556.47;4294694;82;28500;-83
2021/11/04 10:38:41;;;;;;;10.85;3.27;;;;;;;13.24;100.00;97530.84;4310717;82;28452;-84
2021/11/04 10:44:44;;;;;;;14.93;3.52;;;;;;;13.30;100.00;97534.30;4279896;82;28479;-83
2021/11/04 10:50:48;;;;;;;13.48;4.10;;;;;;;13.22;100.00;97535.73;4286087;82;28890;-84
2021/11/04 10:56:53;;;;;;;9.18;3.85;;;;;;;13.34;100.00;97544.80;4298714;81;28547;-84
2021/11/04 11:03:12;;;;;;;12.28;4.25;;;;;;;13.52;100.00;97527.08;4303241;81;28497;-83
2021/11/04 11:09:23;;;;;;;10.18;3.77;;;;;;;13.78;100.00;97522.17;4284882;82;28517;-83
2021/11/04 11:15:26;;;;;;;8.25;3.92;;;;;;;13.86;100.00;97485.59;4306365;82;28509;-83
2021/11/04 11:21:41;;;;;;;7.00;3.25;;;;;;;14.01;100.00;97504.06;4179965;85;28463;-83
2021/11/04 11:27:43;;;;;;;7.60;2.87;;;;;;;14.05;100.00;97496.97;4281253;82;28490;-84
2021/11/04 11:34:12;;;;;;;8.20;2.87;;;;;;;14.19;100.00;97511.34;4279585;82;28489;-84
2021/11/04 11:40:15;;;;;;;9.75;4.00;;;;;;;14.33;100.00;97526.29;4294726;82;28474;-84
2021/11/04 11:46:16;;;;;;;12.07;3.80;;;;;;;14.23;100.00;97538.60;4307217;82;28472;-87
2021/11/04 11:52:56;;;;;;;14.35;3.83;;;;;;;14.40;100.00;97519.16;4298148;81;28471;-86
2021/11/04 11:59:20;;;;;;;6.85;2.50;;;;;;;14.63;100.00;97510.70;4134385;85;28490;-85
2021/11/04 12:05:35;;;;;;;3.92;2.00;;;;;;;14.97;100.00;97503.41;4275293;82;28547;-84
2021/11/04 12:18:16;;;;;;;6.45;1.90;;;;;;;15.31;100.00;97518.48;3954198;87;28453;-82
2021/11/04 12:24:18;;;;;;;3.90;1.77;;;;;;;15.49;100.00;97517.34;4026817;88;28533;-89
2021/11/04 12:30:27;;;;;;;5.33;2.40;;;;;;;15.61;100.00;97520.35;3948620;90;28532;-90
2021/11/04 12:36:40;;;;;;;3.62;1.80;;;;;;;15.87;100.00;97540.70;3968716;89;28477;-89
2021/11/04 12:42:45;;;;;;;4.80;1.80;;;;;;;16.26;100.00;97541.27;3965487;89;28539;-90
2021/11/04 12:49:00;;;;;;;3.27;1.20;;;;;;;16.47;100.00;97529.41;3893112;91;28469;-91
2021/11/04 12:55:02;;;;;;;1.82;0.80;;;;;;;16.72;100.00;97530.72;4076070;85;28591;-87
2021/11/04 13:01:04;;;;;;;1.67;0.40;;;;;;;16.89;100.00;97542.78;4246438;84;28455;-88
2021/11/04 13:07:08;;;;;;;1.15;0.40;;;;;;;17.26;95.09;97550.84;4209143;84;28500;-89
2021/11/04 13:13:09;;;;;;;1.22;0.40;;;;;;;17.60;88.20;97563.55;4246391;84;28469;-85
2021/11/04 13:19:10;;;;;;;0.68;0.47;;;;;;;17.75;85.88;97550.88;4242561;84;28495;-86
2021/11/04 13:25:16;;;;;;;0.30;0.20;;;;;;;17.53;84.22;97549.84;4230593;82;28481;-83
2021/11/04 13:31:19;;;;;;;0.93;0.40;;;;;;;17.45;83.86;97583.78;4248678;81;28463;-84
2021/11/04 13:37:29;;;;;;;0.72;0.40;;;;;;;17.25;84.23;97600.30;4202626;83;50186;-85
2021/11/04 13:43:45;;;;;;;0.95;0.40;;;;;;;17.32;81.51;97617.52;4260663;82;28563;-83
2021/11/04 13:49:51;;;;;;;;;;;;;;;17.10;77.11;97622.39;4313730;81;28473;-84
2021/11/04 13:55:56;;;;;;;0.57;0.40;;;;;;;16.87;73.95;97645.44;4318588;81;20208;-82
2021/11/04 14:02:08;;;;;;;0.53;0.40;;;;;;;16.79;68.25;97646.16;4202234;83;47291;-83
2021/11/04 14:08:11;;;;;;;0.45;0.30;;;;;;;16.68;68.91;97657.24;4305673;81;28488;-85
2021/11/04 14:14:12;;;;;;;1.02;0.50;;;;;;;16.56;67.66;97680.03;4297684;81;28534;-83
2021/11/04 14:20:16;;;;;;;2.80;0.40;;;;;;;16.55;69.68;97696.06;4299688;81;28445;-84
2021/11/04 14:26:17;;;;;;;4.45;1.47;;;;;;;16.47;67.31;97713.05;4318800;81;28488;-84
2021/11/04 14:32:19;;;;;;;6.50;1.82;;;;;;;16.06;85.15;97770.23;4312724;81;28522;-85
2021/11/04 14:38:20;;;;;;;5.08;1.70;;;;;;;15.19;100.00;97803.78;4294040;81;28538;-83
2021/11/04 14:44:22;;;;;;;5.85;1.80;;;;;;;14.67;100.00;97812.52;4287662;81;28534;-85
2021/11/04 14:50:23;;;;;;;3.12;1.85;;;;;;;14.16;100.00;97832.75;4275910;81;28510;-86
2021/11/04 14:56:25;;;;;;;2.77;1.67;;;;;;;13.92;100.00;97845.66;4299399;81;28466;-86
2021/11/04 15:02:27;;;;;;;3.12;1.82;;;;;;;13.52;100.00;97847.83;4300427;81;28501;-84
2021/11/04 15:08:29;;;;;;;3.75;2.05;;;;;;;13.39;100.00;97855.17;4251066;82;28454;-85
2021/11/04 15:14:30;;;;;;;4.37;2.00;;;;;;;13.17;100.00;97856.89;4249233;82;28472;-80
2021/11/04 15:20:32;;;;;;;3.52;1.87;;;;;;;12.92;100.00;97883.73;4270023;82;28528;-83
2021/11/04 15:26:34;;;;;;;4.35;2.20;;;;;;;12.64;100.00;97898.61;4291618;81;28507;-81
2021/11/04 15:32:35;;;;;;;4.17;2.00;;;;;;;12.50;100.00;97903.22;4240367;82;28540;-81
2021/11/04 15:38:37;;;;;;;4.95;2.40;;;;;;;12.38;100.00;97910.79;4281703;82;28463;-85
2021/11/04 15:44:39;;;;;;;4.75;3.02;;;;;;;12.30;100.00;97931.02;4271645;83;28542;-82
2021/11/04 15:50:41;;;;;;;7.95;2.55;;;;;;;12.08;100.00;97943.39;4296181;83;28477;-79
2021/11/04 15:56:44;;;;;;;5.30;2.20;;;;;;;11.76;100.00;97943.03;4293839;83;28465;-85
2021/11/04 16:02:46;;;;;;;3.70;1.70;;;;;;;11.67;100.00;97955.66;4253003;83;28509;-83
2021/11/04 16:08:48;;;;;;;4.03;1.85;;;;;;;11.95;100.00;97964.36;4295838;83;28493;-84
2021/11/04 16:14:51;;;;;;;3.12;1.50;;;;;;;12.02;100.00;97986.16;4301387;81;28533;-82
2021/11/04 16:20:53;;;;;;;4.22;1.90;;;;;;;12.01;100.00;97979.98;4290965;81;28496;-80
2021/11/04 16:26:56;;;;;;;3.12;1.47;;;;;;;11.99;100.00;97995.61;4281840;81;28596;-83
2021/11/04 16:33:00;;;;;;;4.47;1.50;;;;;;;11.93;100.00;98014.99;4231083;83;28533;-81
2021/11/04 16:39:03;;;;;;;3.05;1.50;;;;;;;11.97;100.00;98026.84;4242889;84;28513;-80
2021/11/04 16:45:10;;;;;;;3.33;1.60;;;;;;;11.95;100.00;98047.03;4251950;84;28452;-82
2021/11/04 16:51:13;;;;;;;3.92;1.62;;;;;;;12.02;100.00;98075.06;4231531;84;28492;-84
2021/11/04 16:57:17;;;;;;;4.62;1.65;;;;;;;11.95;100.00;98095.00;4245269;82;28540;-82
2021/11/04 17:03:22;;;;;;;6.70;2.62;;;;;;;11.84;100.00;98107.59;4245577;83;28560;-82
2021/11/04 17:09:25;;;;;;;6.17;3.40;;;;;;;11.61;100.00;98113.41;4239385;84;28541;-79
2021/11/04 17:15:28;;;;;;;8.98;3.65;;;;;;;11.23;100.00;98130.92;4214516;84;28514;-83
2021/11/04 17:21:30;;;;;;;6.42;3.22;;;;;;;10.95;100.00;98151.16;4161030;84;28521;-87
2021/11/04 17:27:34;;;;;;;6.12;2.77;;;;;;;10.67;100.00;98148.17;4175130;84;28558;-81
2021/11/04 17:33:37;;;;;;;6.40;3.05;;;;;;;10.39;100.00;98159.42;4155829;84;28461;-81
2021/11/04 17:39:39;;;;;;;7.58;2.95;;;;;;;10.32;100.00;98178.43;4165123;83;28478;-82
2021/11/04 17:45:42;;;;;;;6.83;3.20;;;;;;;10.13;100.00;98168.51;4305765;81;28588;-83
2021/11/04 17:51:44;;;;;;;9.00;3.30;;;;;;;9.99;100.00;98186.86;4306796;81;28537;-81
2021/11/04 17:57:49;;;;;;;8.38;3.70;;;;;;;9.84;100.00;98199.54;4296141;81;28525;-84
2021/11/04 18:03:58;;;;;;;8.75;3.40;;;;;;;9.66;100.00;98200.11;4312190;81;28459;-84
2021/11/04 18:09:56;;;;;;;8.25;3.55;;;;;;;9.52;100.00;98211.70;4309032;81;28517;-83
2021/11/04 18:15:58;;;;;;;7.75;3.40;;;;;;;9.58;100.00;98215.28;4311370;81;28458;-82
2021/11/04 18:22:01;;;;;;;8.23;3.62;;;;;;;9.45;100.00;98218.58;4314809;81;28506;-83
2021/11/04 18:28:04;;;;;;;9.88;3.90;;;;;;;9.35;100.00;98217.87;4312687;81;28481;-82
2021/11/04 18:34:08;;;;;;;6.78;3.58;;;;;;;9.18;100.00;98218.41;4294527;82;28479;-84
2021/11/04 18:40:11;;;;;;;6.28;3.25;;;;;;;9.13;100.00;98227.17;4240990;83;28503;-82
2021/11/04 18:46:14;;;;;;;7.92;2.65;;;;;;;8.96;100.00;98230.34;4224821;83;28513;-81
2021/11/04 18:52:16;;;;;;;7.30;2.92;;;;;;;8.88;100.00;98244.95;4286909;83;28545;-83
2021/11/04 18:58:19;;;;;;;7.53;2.92;;;;;;;8.93;100.00;98260.61;4254426;83;28480;-82
2021/11/04 19:04:21;;;;;;;7.65;3.62;;;;;;;8.94;100.00;98266.77;4264790;82;28440;-82
2021/11/04 19:10:25;;;;;;;8.35;3.52;;;;;;;8.95;100.00;98283.67;4158265;84;28566;-80
2021/11/04 19:16:28;;;;;;;10.95;4.37;;;;;;;8.93;100.00;98299.99;4142373;83;28558;-84
2021/11/04 19:22:30;;;;;;;9.98;4.33;;;;;;;8.85;100.00;98299.02;4176290;84;28560;-84
2021/11/04 19:28:35;;;;;;;9.33;4.17;;;;;;;8.82;100.00;98315.08;4258795;82;28543;-85
2021/11/04 19:34:37;;;;;;;8.00;3.70;;;;;;;8.73;100.00;98329.89;4252119;83;28531;-88
2021/11/04 19:40:41;;;;;;;5.97;2.72;;;;;;;8.69;100.00;98319.34;4305375;81;28583;-89
2021/11/04 19:46:58;;;;;;;5.53;2.50;;;;;;;8.85;100.00;98318.61;4288691;82;28511;-82
2021/11/04 19:53:04;;;;;;;5.22;1.70;;;;;;;8.99;99.76;98327.71;4316468;81;28482;-83
2021/11/04 19:59:08;;;;;;;4.33;1.67;;;;;;;9.10;93.10;98318.81;4304071;81;28476;-84
2021/11/04 20:05:10;;;;;;;3.00;1.45;;;;;;;9.31;87.79;98333.95;4288103;81;28556;-82
2021/11/04 20:11:13;;;;;;;3.52;1.25;;;;;;;9.32;86.04;98316.28;4310901;81;28482;-84
2021/11/04 20:17:18;;;;;;;3.15;1.20;;;;;;;9.33;85.69;98329.98;4296262;81;28521;-84
2021/11/04 20:23:21;;;;;;;2.70;0.93;;;;;;;9.33;85.35;98332.66;4312246;81;37349;-85
2021/11/04 20:29:24;;;;;;;2.83;1.40;;;;;;;9.27;81.26;98313.52;4184371;83;28534;-83
2021/11/04 20:35:26;;;;;;;4.80;1.30;;;;;;;9.43;80.51;98353.52;4208601;83;28471;-84
2021/11/04 20:41:29;;;;;;;3.05;1.37;;;;;;;9.47;80.74;98375.28;4220117;84;28440;-83
2021/11/04 20:47:32;;;;;;;4.00;1.57;;;;;;;9.38;81.23;98381.57;4268929;82;28545;-88
2021/11/04 20:53:35;;;;;;;4.47;1.95;;;;;;;9.41;78.03;98420.53;4242734;82;28515;-83
2021/11/04 20:59:37;;;;;;;4.08;1.80;;;;;;;9.23;84.94;98434.94;4240921;82;28472;-86
2021/11/04 21:05:45;;;;;;;5.08;2.27;;;;;;;9.09;87.13;98438.40;4217440;83;28563;-89
2021/11/04 21:11:47;;;;;;;7.62;3.40;;;;;;;8.98;88.27;98446.74;4126237;85;28501;-80
2021/11/04 21:17:50;;;;;;;10.78;4.47;;;;;;;8.89;89.28;98465.86;4258432;83;28474;-87
2021/11/04 21:24:00;;;;;;;9.60;4.75;;;;;;;8.76;91.90;98486.20;4242707;83;28487;-83
2021/11/04 21:30:10;;;;;;;9.58;4.45;;;;;;;8.61;95.69;98483.98;4273702;82;28466;-84
2021/11/04 21:36:13;;;;;;;11.05;5.03;;;;;;;8.48;97.73;98485.81;4275968;81;28521;-86
2021/11/04 21:42:19;;;;;;;9.90;4.60;;;;;;;8.29;100.00;98493.63;4310369;81;28454;-86
2021/11/04 21:48:22;;;;;;;8.35;3.60;;;;;;;8.12;100.00;98502.30;4318344;81;28494;-85
2021/11/04 21:54:23;;;;;;;4.35;2.33;;;;;;;8.02;100.00;98504.20;4205014;83;28511;-86
2021/11/04 22:00:29;;;;;;;3.62;1.45;;;;;;;8.05;100.00;98520.34;4301445;81;28482;-86
2021/11/04 22:06:30;;;;;;;2.33;1.10;;;;;;;8.08;100.00;98518.55;4287370;82;28475;-85
2021/11/04 22:12:32;;;;;;;2.67;1.10;;;;;;;8.20;100.00;98546.17;4314733;81;28522;-86
2021/11/04 22:18:33;;;;;;;1.57;0.80;;;;;;;8.22;100.00;98556.12;4318685;81;28526;-87
2021/11/04 22:24:35;;;;;;;1.15;0.80;;;;;;;8.29;100.00;98574.81;4307628;81;28518;-85
2021/11/04 22:30:43;;;;;;;1.07;0.70;;;;;;;8.32;100.00;98581.05;4294257;81;28477;-85
2021/11/04 22:36:48;;;;;;;1.05;0.60;;;;;;;8.35;100.00;98587.27;4307877;81;28495;-88
2021/11/04 22:42:50;;;;;;;1.00;0.60;;;;;;;8.34;99.92;98588.33;4276187;81;28526;-80
2021/11/04 22:48:51;;;;;;;1.57;0.53;;;;;;;8.33;97.23;98586.69;4302730;81;28499;-80
2021/11/04 22:54:53;;;;;;;1.22;0.60;;;;;;;8.26;97.07;98594.53;4307100;81;28510;-81
2021/11/04 23:00:58;;;;;;;1.02;0.62;;;;;;;8.17;96.63;98605.55;4288120;82;28464;-81
2021/11/04 23:06:59;;;;;;;3.02;0.78;;;;;;;8.12;96.64;98595.22;4305198;81;28487;-82
2021/11/04 23:13:02;;;;;;;2.00;0.47;;;;;;;8.13;94.11;98587.48;4313672;81;28538;-84
2021/11/04 23:19:04;;;;;;;1.00;0.40;;;;;;;8.07;92.37;98591.37;4299182;81;28462;-82
2021/11/04 23:25:11;;;;;;;0.80;0.60;;;;;;;8.03;93.01;98619.63;4298659;81;28457;-81
2021/11/04 23:31:13;;;;;;;1.47;0.42;;;;;;;8.11;90.59;98651.96;4310309;81;28570;-81
2021/11/04 23:37:15;;;;;;;1.20;0.60;;;;;;;8.12;90.34;98649.58;4201359;82;28488;-81
2021/11/04 23:43:17;;;;;;;0.60;0.40;;;;;;;8.08;91.09;98653.25;4276534;83;28506;-81
2021/11/04 23:49:20;;;;;;;0.45;0.30;;;;;;;8.00;91.51;98658.07;4304026;82;28498;-82
2021/11/04 23:55:22;;;;;;;0.60;0.40;;;;;;;8.00;90.40;98664.25;4286212;83;28496;-83
